KBVO/BVO METAR and TAF weather

Enter ICAO airport designator
Station Type Date Time Source
KBVO METAR 2020/10/20 17:53 UTC NOAA

KBVO 201753Z AUTO 13003KT 7SM OVC008 11/09 A3002 RMK AO2 SLP163 T01060089 10106 20078 58021


Station Type Date Time Source
KBVO Decoded METAR 2020/10/20 17:53 UTC NOAA

BARTLESVILLE MUNICIPAL AIRPORT , OK, United States (KBVO) 36-46N 96-01W 210M
Oct 20, 2020 - 01:53 PM EDT / 2020.10.20 1753 UTC
Wind: from the SE (130 degrees) at 3 MPH (3 KT):0
Visibility: 7 mile(s):0
Sky conditions: overcast
Temperature: 51.1 F (10.6 C)
Dew Point: 48.0 F (8.9 C)
Relative Humidity: 89%
Pressure (altimeter): 30.02 in. Hg (1016 hPa)
Pressure tendency: 0.06 inches (2.1 hPa) lower than three hours ago
ob: KBVO 201753Z AUTO 13003KT 7SM OVC008 11/09 A3002 RMK AO2 SLP163 T01060089 10106 20078 58021
cycle: 18

Station Type Date Time Source
KBVO TAF 2020/10/20 18:42 UTC NOAA

TAF KBVO 201738Z 2018/2118 10003KT P6SM OVC007
FM202100 20007KT P6SM OVC015
FM210000 VRB03KT P6SM VCSH OVC025 PROB30 2103/2109 3SM -RA OVC015
FM210900 03004KT P6SM VCSH OVC015 PROB30 2109/2115 3SM -RA

Example: see airport list